Time;durP1;ratioP1;P1;durP2;ratioP2;P2;SDS_P1;SDS_P2;PMS_P1;PMS_P2;Temp;Humidity;BMP_temperature;BMP_pressure;BME280_temperature;BME280_humidity;BME280_pressure;Samples;Min_cycle;Max_cycle;Signal;HPM_P1;HPM_P2
2021/10/24 00:01:51;;;;;;;2.23;1.30;;;;;;;;;;5073532;28;20029;-61
2021/10/24 00:04:18;;;;;;;6.33;1.80;;;;;;;;;;5073395;28;20050;-61
2021/10/24 00:06:45;;;;;;;6.13;1.50;;;;;;;;;;5067958;28;20101;-61
2021/10/24 00:09:11;;;;;;;4.17;1.40;;;;;;;;;;5068017;28;20446;-61
2021/10/24 00:11:38;;;;;;;3.47;1.47;;;;;;;;;;5067542;28;20540;-60
2021/10/24 00:14:07;;;;;;;3.80;1.40;;;;;;;;;;5067652;28;20408;-61
2021/10/24 00:16:33;;;;;;;5.47;1.23;;;;;;;;;;5071878;28;20058;-61
2021/10/24 00:19:00;;;;;;;3.43;1.20;;;;;;;;;;5072746;28;20040;-61
2021/10/24 00:21:27;;;;;;;2.00;1.07;;;;;;;;;;5082108;28;20024;-61
2021/10/24 00:23:54;;;;;;;1.80;1.00;;;;;;;;;;5093282;28;20028;-61
2021/10/24 00:26:21;;;;;;;3.60;1.00;;;;;;;;;;5092803;28;20020;-60
2021/10/24 00:28:48;;;;;;;4.57;1.60;;;;;;;;;;5088531;28;20487;-61
2021/10/24 00:31:15;;;;;;;3.77;1.57;;;;;;;;;;5087556;28;20024;-61
2021/10/24 00:33:42;;;;;;;3.57;1.27;;;;;;;;;;5087737;28;20016;-60
2021/10/24 00:36:08;;;;;;;1.63;1.00;;;;;;;;;;5087548;28;20099;-61
2021/10/24 00:38:35;;;;;;;2.53;1.20;;;;;;;;;;5091367;28;20028;-60
2021/10/24 00:41:02;;;;;;;7.60;1.70;;;;;;;;;;5092562;28;20059;-61
2021/10/24 00:43:29;;;;;;;2.07;1.07;;;;;;;;;;5092794;28;20479;-61
2021/10/24 00:45:55;;;;;;;2.27;1.30;;;;;;;;;;5092976;28;20740;-60
2021/10/24 00:48:22;;;;;;;2.70;1.30;;;;;;;;;;5092687;28;20107;-61
2021/10/24 00:50:49;;;;;;;2.17;1.10;;;;;;;;;;5087804;28;20028;-61
2021/10/24 00:53:16;;;;;;;2.20;1.17;;;;;;;;;;5087332;28;20044;-60
2021/10/24 00:55:44;;;;;;;5.27;1.30;;;;;;;;;;5087225;28;20020;-61
2021/10/24 00:58:12;;;;;;;3.00;1.20;;;;;;;;;;5086752;28;20104;-61
2021/10/24 01:00:39;;;;;;;2.47;1.30;;;;;;;;;;5090391;28;20027;-61
2021/10/24 01:03:06;;;;;;;1.80;1.03;;;;;;;;;;5092481;28;20048;-61
2021/10/24 01:05:34;;;;;;;4.70;1.40;;;;;;;;;;5092256;28;20103;-61
2021/10/24 01:08:01;;;;;;;1.57;1.17;;;;;;;;;;5092435;28;20032;-61
2021/10/24 01:10:28;;;;;;;2.20;0.93;;;;;;;;;;5092620;28;20109;-60
2021/10/24 01:12:55;;;;;;;2.77;1.43;;;;;;;;;;5088645;28;20020;-61
2021/10/24 01:15:24;;;;;;;1.37;0.80;;;;;;;;;;5087015;28;20078;-60
2021/10/24 01:17:51;;;;;;;3.33;1.40;;;;;;;;;;5087061;28;20048;-60
2021/10/24 01:20:20;;;;;;;3.20;1.07;;;;;;;;;;5086652;28;20682;-60
2021/10/24 01:22:47;;;;;;;2.77;1.20;;;;;;;;;;5089533;28;20039;-61
2021/10/24 01:25:14;;;;;;;2.60;1.20;;;;;;;;;;5092216;28;20352;-61
2021/10/24 01:27:41;;;;;;;3.77;1.20;;;;;;;;;;5092082;28;20024;-61
2021/10/24 01:30:09;;;;;;;3.00;1.30;;;;;;;;;;5092186;28;20012;-61
2021/10/24 01:32:36;;;;;;;6.37;1.00;;;;;;;;;;5092436;28;20028;-61
2021/10/24 01:35:03;;;;;;;3.47;0.87;;;;;;;;;;5089043;28;20095;-60
2021/10/24 01:37:33;;;;;;;1.43;0.80;;;;;;;;;;5086806;28;20024;-60
2021/10/24 01:40:01;;;;;;;2.63;1.10;;;;;;;;;;5086531;28;20016;-61
2021/10/24 01:42:28;;;;;;;3.60;1.10;;;;;;;;;;5086517;28;20024;-61
2021/10/24 01:44:54;;;;;;;2.73;1.00;;;;;;;;;;5089452;28;20031;-60
2021/10/24 01:47:21;;;;;;;2.53;1.00;;;;;;;;;;5092050;28;20078;-61
2021/10/24 01:49:48;;;;;;;1.70;0.90;;;;;;;;;;5092081;28;20024;-61
2021/10/24 01:52:16;;;;;;;1.57;0.80;;;;;;;;;;5092118;28;20499;-61
2021/10/24 01:54:43;;;;;;;2.20;0.77;;;;;;;;;;5091799;28;20013;-61
2021/10/24 01:57:10;;;;;;;1.67;0.90;;;;;;;;;;5088773;28;20039;-60
2021/10/24 01:59:37;;;;;;;2.23;1.10;;;;;;;;;;5086409;28;20028;-60
2021/10/24 02:02:04;;;;;;;4.77;1.17;;;;;;;;;;5086911;28;20047;-60
2021/10/24 02:04:31;;;;;;;2.43;0.70;;;;;;;;;;5090502;28;20024;-61
2021/10/24 02:06:57;;;;;;;5.50;1.20;;;;;;;;;;5092609;28;20042;-60
2021/10/24 02:09:24;;;;;;;2.60;0.90;;;;;;;;;;5095935;28;20028;-61
2021/10/24 02:11:51;;;;;;;1.73;0.60;;;;;;;;;;5095951;28;20035;-60
2021/10/24 02:14:18;;;;;;;3.23;0.70;;;;;;;;;;5095187;28;20074;-60
2021/10/24 02:16:44;;;;;;;3.60;0.80;;;;;;;;;;5095803;28;20048;-61
2021/10/24 02:19:11;;;;;;;2.23;0.90;;;;;;;;;;5093386;28;20028;-61
2021/10/24 02:21:38;;;;;;;1.80;0.80;;;;;;;;;;5089766;28;21240;-61
2021/10/24 02:24:05;;;;;;;3.37;0.77;;;;;;;;;;5089830;28;20040;-60
2021/10/24 02:26:32;;;;;;;3.17;1.00;;;;;;;;;;5089986;28;20028;-61
2021/10/24 02:28:59;;;;;;;2.30;1.00;;;;;;;;;;5091421;28;20085;-61
2021/10/24 02:31:26;;;;;;;5.77;1.20;;;;;;;;;;5094898;28;20020;-60
2021/10/24 02:33:53;;;;;;;2.07;1.00;;;;;;;;;;5095394;28;20032;-60
2021/10/24 02:36:19;;;;;;;8.07;0.90;;;;;;;;;;5095467;28;20028;-60
2021/10/24 02:38:46;;;;;;;2.83;1.00;;;;;;;;;;5095346;28;20531;-60
2021/10/24 02:41:13;;;;;;;6.27;1.20;;;;;;;;;;5093390;28;20547;-60
2021/10/24 02:43:40;;;;;;;2.10;0.87;;;;;;;;;;5089622;28;20479;-60
2021/10/24 02:46:06;;;;;;;0.87;0.57;;;;;;;;;;5089344;28;20093;-60
2021/10/24 02:48:33;;;;;;;1.63;0.83;;;;;;;;;;5089336;28;20103;-61
2021/10/24 02:51:00;;;;;;;1.60;0.70;;;;;;;;;;5090628;28;20034;-60
2021/10/24 02:53:27;;;;;;;2.93;1.33;;;;;;;;;;5095093;28;20028;-60
2021/10/24 02:55:54;;;;;;;2.57;1.00;;;;;;;;;;5095080;28;20024;-60
2021/10/24 02:58:21;;;;;;;1.60;1.17;;;;;;;;;;5094782;28;20039;-60
2021/10/24 03:00:47;;;;;;;3.93;1.00;;;;;;;;;;5095018;28;20027;-60
2021/10/24 03:03:14;;;;;;;4.57;0.93;;;;;;;;;;5093135;28;20024;-60
2021/10/24 03:05:41;;;;;;;4.03;0.80;;;;;;;;;;5089052;28;20044;-60
2021/10/24 03:08:08;;;;;;;1.73;0.50;;;;;;;;;;5089053;28;20028;-60
2021/10/24 03:10:35;;;;;;;0.73;0.57;;;;;;;;;;5089204;28;20020;-60
2021/10/24 03:13:01;;;;;;;1.37;0.80;;;;;;;;;;5089489;28;20399;-60
2021/10/24 03:15:28;;;;;;;3.50;1.23;;;;;;;;;;5093979;28;20379;-60
2021/10/24 03:17:55;;;;;;;1.87;0.30;;;;;;;;;;5094572;28;20495;-60
2021/10/24 03:20:22;;;;;;;1.73;0.70;;;;;;;;;;5094161;28;20031;-60
2021/10/24 03:22:48;;;;;;;1.13;0.60;;;;;;;;;;5094381;28;20067;-60
2021/10/24 03:25:15;;;;;;;1.03;0.60;;;;;;;;;;5093605;28;20028;-61
2021/10/24 03:27:42;;;;;;;3.40;0.83;;;;;;;;;;5088810;28;20085;-60
2021/10/24 03:30:09;;;;;;;3.60;0.70;;;;;;;;;;5089043;28;20105;-61
2021/10/24 03:32:36;;;;;;;1.03;0.60;;;;;;;;;;5088729;28;20173;-60
2021/10/24 03:35:03;;;;;;;1.33;0.40;;;;;;;;;;5088139;28;20111;-61
2021/10/24 03:37:30;;;;;;;2.67;0.70;;;;;;;;;;5094291;28;20370;-61
2021/10/24 03:39:57;;;;;;;2.33;0.53;;;;;;;;;;5093913;28;20016;-60
2021/10/24 03:42:23;;;;;;;3.87;1.10;;;;;;;;;;5094178;28;20024;-61
2021/10/24 03:44:50;;;;;;;5.37;0.90;;;;;;;;;;5094086;28;20483;-60
2021/10/24 03:47:17;;;;;;;3.60;0.87;;;;;;;;;;5093599;28;20374;-61
2021/10/24 03:49:44;;;;;;;3.93;0.60;;;;;;;;;;5088513;28;20375;-61
2021/10/24 03:52:10;;;;;;;2.23;0.57;;;;;;;;;;5088018;28;20535;-60
2021/10/24 03:54:37;;;;;;;1.57;0.60;;;;;;;;;;5088417;28;20028;-60
2021/10/24 03:57:04;;;;;;;1.20;0.70;;;;;;;;;;5088230;28;20095;-60
2021/10/24 03:59:31;;;;;;;1.77;0.90;;;;;;;;;;5093051;28;20077;-60
2021/10/24 04:01:58;;;;;;;3.43;1.83;;;;;;;;;;5093681;28;20028;-60
2021/10/24 04:04:25;;;;;;;2.07;0.90;;;;;;;;;;5093654;28;20051;-60
2021/10/24 04:06:52;;;;;;;2.80;0.70;;;;;;;;;;5093430;28;20088;-60
2021/10/24 04:09:18;;;;;;;0.60;0.40;;;;;;;;;;5093487;28;20056;-60
2021/10/24 04:11:45;;;;;;;3.63;0.57;;;;;;;;;;5088146;28;20024;-61
2021/10/24 04:14:12;;;;;;;2.37;0.70;;;;;;;;;;5087910;28;20016;-60
2021/10/24 04:16:39;;;;;;;1.90;0.60;;;;;;;;;;5088017;28;20726;-60
2021/10/24 04:19:06;;;;;;;3.13;0.60;;;;;;;;;;5087899;28;20023;-61
2021/10/24 04:21:32;;;;;;;2.37;0.40;;;;;;;;;;5092319;28;20031;-60
2021/10/24 04:23:59;;;;;;;3.40;0.20;;;;;;;;;;5092982;28;20111;-60
2021/10/24 04:26:26;;;;;;;2.57;0.20;;;;;;;;;;5092842;28;20039;-60
2021/10/24 04:28:53;;;;;;;2.70;0.20;;;;;;;;;;5093385;28;20035;-60
2021/10/24 04:31:20;;;;;;;0.47;0.23;;;;;;;;;;5093035;28;20020;-60
2021/10/24 04:33:47;;;;;;;1.53;0.20;;;;;;;;;;5088245;28;20020;-60
2021/10/24 04:36:14;;;;;;;1.87;0.30;;;;;;;;;;5087602;28;20024;-61
2021/10/24 04:38:41;;;;;;;1.60;0.23;;;;;;;;;;5087205;28;20027;-60
2021/10/24 04:41:07;;;;;;;3.03;0.20;;;;;;;;;;5087527;28;20028;-60
2021/10/24 04:43:34;;;;;;;0.30;0.17;;;;;;;;;;5091520;28;20024;-60
2021/10/24 04:46:01;;;;;;;1.30;0.40;;;;;;;;;;5093041;28;20024;-60
2021/10/24 04:48:28;;;;;;;2.03;0.33;;;;;;;;;;5092562;28;20036;-60
2021/10/24 04:50:55;;;;;;;0.30;0.17;;;;;;;;;;5092498;28;20077;-60
2021/10/24 04:53:23;;;;;;;0.67;0.30;;;;;;;;;;5092835;28;20475;-60
2021/10/24 04:55:51;;;;;;;0.40;0.10;;;;;;;;;;5088407;28;20517;-60
2021/10/24 04:58:18;;;;;;;2.50;0.30;;;;;;;;;;5087111;28;20024;-60
2021/10/24 05:00:44;;;;;;;1.93;0.10;;;;;;;;;;5087149;28;20546;-61
2021/10/24 05:03:11;;;;;;;7.17;0.40;;;;;;;;;;5087203;28;20725;-60
2021/10/24 05:05:38;;;;;;;5.33;0.30;;;;;;;;;;5090583;28;20024;-60
2021/10/24 05:08:05;;;;;;;2.50;0.90;;;;;;;;;;5092573;28;20024;-60
2021/10/24 05:10:32;;;;;;;4.40;0.80;;;;;;;;;;5092191;28;20027;-60
2021/10/24 05:12:59;;;;;;;6.43;1.60;;;;;;;;;;5092747;28;20361;-61
2021/10/24 05:15:26;;;;;;;1.60;0.80;;;;;;;;;;5092370;28;20073;-60
2021/10/24 05:17:52;;;;;;;1.33;0.70;;;;;;;;;;5088785;28;20114;-60
2021/10/24 05:20:19;;;;;;;1.93;0.53;;;;;;;;;;5087433;28;20028;-60
2021/10/24 05:22:46;;;;;;;3.57;0.60;;;;;;;;;;5086861;28;20024;-60
2021/10/24 05:25:13;;;;;;;1.87;0.90;;;;;;;;;;5086745;28;20036;-60
2021/10/24 05:27:39;;;;;;;1.27;0.80;;;;;;;;;;5090260;28;20032;-60
2021/10/24 05:30:07;;;;;;;1.93;0.90;;;;;;;;;;5092411;28;20387;-60
2021/10/24 05:32:34;;;;;;;7.13;1.00;;;;;;;;;;5092543;28;20024;-60
2021/10/24 05:35:00;;;;;;;2.23;0.80;;;;;;;;;;5092243;28;20028;-60
2021/10/24 05:37:27;;;;;;;2.30;0.80;;;;;;;;;;5093343;28;20020;-60
2021/10/24 05:39:54;;;;;;;3.03;0.70;;;;;;;;;;5092821;28;20153;-60
2021/10/24 05:42:21;;;;;;;2.27;1.10;;;;;;;;;;5090877;28;20023;-60
2021/10/24 05:44:49;;;;;;;7.70;1.53;;;;;;;;;;5091277;28;20031;-60
2021/10/24 05:47:15;;;;;;;4.17;1.07;;;;;;;;;;5090998;28;20028;-60
2021/10/24 05:49:42;;;;;;;5.30;1.30;;;;;;;;;;5093762;28;20371;-61
2021/10/24 05:52:09;;;;;;;2.63;0.70;;;;;;;;;;5096320;28;20035;-60
2021/10/24 05:54:36;;;;;;;1.50;0.83;;;;;;;;;;5096225;28;20024;-60
2021/10/24 05:57:03;;;;;;;3.40;0.80;;;;;;;;;;5095823;28;20020;-60
2021/10/24 05:59:29;;;;;;;2.70;0.50;;;;;;;;;;5096193;28;20016;-60
2021/10/24 06:01:56;;;;;;;1.73;0.80;;;;;;;;;;5093113;28;20396;-60
2021/10/24 06:04:23;;;;;;;5.93;0.73;;;;;;;;;;5090915;28;20024;-60
2021/10/24 06:06:50;;;;;;;3.50;0.63;;;;;;;;;;5090390;28;20077;-60
2021/10/24 06:09:17;;;;;;;3.07;1.03;;;;;;;;;;5090738;28;20024;-60
2021/10/24 06:11:54;;;;;;;2.10;1.10;;;;;;;;;;5092950;28;20107;-60
2021/10/24 06:14:20;;;;;;;3.30;1.20;;;;;;;;;;5095892;28;20437;-60
2021/10/24 06:16:47;;;;;;;4.20;1.20;;;;;;;;;;5095842;28;20020;-60
2021/10/24 06:19:14;;;;;;;3.27;0.80;;;;;;;;;;5095877;28;20379;-60
2021/10/24 06:21:41;;;;;;;2.57;0.80;;;;;;;;;;5095662;28;20360;-60
2021/10/24 06:24:08;;;;;;;2.23;1.23;;;;;;;;;;5092257;28;20028;-60
2021/10/24 06:26:34;;;;;;;3.37;0.50;;;;;;;;;;5090072;28;20059;-60
2021/10/24 06:29:01;;;;;;;2.03;0.50;;;;;;;;;;5090171;28;20036;-60
2021/10/24 06:31:28;;;;;;;1.50;0.57;;;;;;;;;;5090254;28;20020;-60
2021/10/24 06:33:55;;;;;;;1.80;0.40;;;;;;;;;;5093066;28;20383;-60
2021/10/24 06:36:22;;;;;;;1.37;0.77;;;;;;;;;;5095749;28;20024;-60
2021/10/24 06:38:48;;;;;;;1.20;0.50;;;;;;;;;;5095077;28;20035;-61
2021/10/24 06:41:15;;;;;;;3.43;0.60;;;;;;;;;;5094831;28;20028;-60
2021/10/24 06:43:42;;;;;;;4.43;0.73;;;;;;;;;;5095416;28;20516;-60
2021/10/24 06:46:09;;;;;;;1.70;0.80;;;;;;;;;;5092503;28;20034;-61
2021/10/24 06:48:35;;;;;;;6.07;1.07;;;;;;;;;;5091482;28;20071;-60
2021/10/24 06:51:02;;;;;;;1.77;0.70;;;;;;;;;;5093196;28;20028;-59
2021/10/24 06:53:29;;;;;;;2.67;0.53;;;;;;;;;;5090229;28;20049;-59
2021/10/24 06:55:56;;;;;;;0.97;0.40;;;;;;;;;;5100709;28;20030;-58
2021/10/24 06:58:23;;;;;;;1.63;0.67;;;;;;;;;;5101749;28;20110;-59
2021/10/24 07:00:49;;;;;;;2.17;0.57;;;;;;;;;;5108941;28;20035;-59
2021/10/24 07:03:16;;;;;;;2.20;0.53;;;;;;;;;;5094855;28;20043;-60
2021/10/24 07:05:43;;;;;;;1.07;0.57;;;;;;;;;;5095236;28;20170;-60
2021/10/24 07:08:10;;;;;;;0.67;0.40;;;;;;;;;;5092138;28;20043;-60
2021/10/24 07:10:36;;;;;;;3.50;0.63;;;;;;;;;;5089681;28;20028;-60
2021/10/24 07:13:03;;;;;;;4.30;0.70;;;;;;;;;;5089713;28;20530;-60
2021/10/24 07:15:30;;;;;;;1.03;0.40;;;;;;;;;;5089823;28;20091;-59
2021/10/24 07:17:57;;;;;;;0.77;0.50;;;;;;;;;;5091480;28;20023;-60
2021/10/24 07:20:24;;;;;;;5.73;0.60;;;;;;;;;;5094684;28;20031;-59
2021/10/24 07:22:50;;;;;;;1.27;0.50;;;;;;;;;;5094438;28;20498;-59
2021/10/24 07:25:18;;;;;;;1.00;0.40;;;;;;;;;;5094596;28;20043;-60
2021/10/24 07:27:45;;;;;;;1.23;0.50;;;;;;;;;;5094379;28;20484;-60
2021/10/24 07:30:12;;;;;;;3.30;0.50;;;;;;;;;;5091991;28;20028;-60
2021/10/24 07:32:39;;;;;;;7.30;1.00;;;;;;;;;;5089632;28;20841;-59
2021/10/24 07:35:10;;;;;;;5.33;0.77;;;;;;;;;;5089330;28;20056;-60
2021/10/24 07:37:40;;;;;;;1.00;0.30;;;;;;;;;;5089407;28;20024;-60
2021/10/24 07:40:07;;;;;;;0.80;0.40;;;;;;;;;;5091108;28;20032;-60
2021/10/24 07:42:34;;;;;;;0.40;0.30;;;;;;;;;;5093956;28;20103;-60
2021/10/24 07:45:01;;;;;;;1.00;0.70;;;;;;;;;;5094669;28;20028;-60
2021/10/24 07:47:30;;;;;;;2.77;0.40;;;;;;;;;;5093722;28;20483;-60
2021/10/24 07:50:01;;;;;;;0.87;0.40;;;;;;;;;;5094251;28;20391;-60
2021/10/24 07:52:27;;;;;;;3.80;0.30;;;;;;;;;;5091823;28;20058;-60
2021/10/24 07:54:54;;;;;;;1.30;0.93;;;;;;;;;;5088853;28;20021;-60
2021/10/24 07:57:21;;;;;;;1.13;0.30;;;;;;;;;;5088564;28;20016;-60
2021/10/24 07:59:48;;;;;;;0.80;0.40;;;;;;;;;;5088573;28;20081;-60
2021/10/24 08:02:18;;;;;;;2.40;0.40;;;;;;;;;;5090679;28;20099;-60
2021/10/24 08:04:53;;;;;;;1.50;0.50;;;;;;;;;;5093897;28;20066;-60
2021/10/24 08:07:20;;;;;;;0.50;0.30;;;;;;;;;;5093565;28;20039;-60
2021/10/24 08:09:47;;;;;;;4.60;0.60;;;;;;;;;;5093615;28;20031;-60
2021/10/24 08:12:14;;;;;;;2.63;0.40;;;;;;;;;;5093215;28;20028;-60
2021/10/24 08:14:40;;;;;;;1.60;0.53;;;;;;;;;;5091253;28;20380;-59
2021/10/24 08:17:08;;;;;;;1.40;0.37;;;;;;;;;;5088484;28;20031;-60
2021/10/24 08:19:35;;;;;;;0.63;0.30;;;;;;;;;;5088564;28;20020;-60
2021/10/24 08:22:03;;;;;;;1.03;0.40;;;;;;;;;;5088614;28;20031;-60
2021/10/24 08:24:30;;;;;;;0.83;0.30;;;;;;;;;;5090180;28;20120;-60
2021/10/24 08:26:57;;;;;;;0.57;0.33;;;;;;;;;;5093169;28;20028;-59
2021/10/24 08:29:23;;;;;;;1.10;0.40;;;;;;;;;;5093182;28;20044;-60
2021/10/24 08:31:52;;;;;;;1.50;0.67;;;;;;;;;;5092959;28;20107;-60
2021/10/24 08:34:20;;;;;;;0.33;0.20;;;;;;;;;;5093996;28;20068;-60
2021/10/24 08:36:47;;;;;;;0.40;0.30;;;;;;;;;;5090717;28;20038;-60
2021/10/24 08:39:14;;;;;;;2.27;0.40;;;;;;;;;;5088286;28;20024;-60
2021/10/24 08:41:41;;;;;;;0.40;0.30;;;;;;;;;;5088165;28;20027;-60
2021/10/24 08:44:08;;;;;;;2.57;0.23;;;;;;;;;;5088172;28;20034;-60
2021/10/24 08:46:38;;;;;;;1.53;0.30;;;;;;;;;;5089696;28;20024;-60
2021/10/24 08:49:05;;;;;;;1.83;0.40;;;;;;;;;;5092929;28;20463;-60
2021/10/24 08:51:32;;;;;;;0.73;0.30;;;;;;;;;;5093099;28;20097;-59
2021/10/24 08:53:59;;;;;;;2.13;0.60;;;;;;;;;;5092737;28;20047;-60
2021/10/24 08:56:28;;;;;;;0.70;0.40;;;;;;;;;;5092865;28;20020;-59
2021/10/24 08:58:55;;;;;;;2.60;0.20;;;;;;;;;;5090606;28;20024;-60
2021/10/24 09:01:22;;;;;;;0.40;0.20;;;;;;;;;;5087932;28;20107;-59
2021/10/24 09:04:21;;;;;;;3.50;0.40;;;;;;;;;;5087725;28;20472;-59
2021/10/24 09:06:48;;;;;;;0.40;0.10;;;;;;;;;;5064463;28;20093;-59
2021/10/24 09:09:18;;;;;;;0.60;0.43;;;;;;;;;;5090428;28;20035;-60
2021/10/24 09:11:54;;;;;;;0.60;0.50;;;;;;;;;;5091707;28;20031;-60
2021/10/24 09:14:39;;;;;;;1.27;0.30;;;;;;;;;;5092804;28;20478;-60
2021/10/24 09:17:06;;;;;;;3.38;0.30;;;;;;;;;;5092718;28;20073;-60
2021/10/24 09:19:35;;;;;;;1.07;0.30;;;;;;;;;;5092582;28;20032;-59
2021/10/24 09:22:22;;;;;;;0.30;0.30;;;;;;;;;;5088075;28;20034;-59
2021/10/24 09:25:07;;;;;;;0.30;0.20;;;;;;;;;;5087398;28;20552;-59
2021/10/24 09:27:40;;;;;;;2.17;0.50;;;;;;;;;;5087397;28;20028;-61
2021/10/24 09:30:21;;;;;;;0.63;0.50;;;;;;;;;;5087444;28;20105;-60
2021/10/24 09:32:51;;;;;;;3.40;0.30;;;;;;;;;;5092565;28;20013;-59
2021/10/24 09:35:21;;;;;;;0.20;0.10;;;;;;;;;;5092002;28;20032;-60
2021/10/24 09:37:49;;;;;;;2.17;0.30;;;;;;;;;;5092164;28;20020;-60
2021/10/24 09:40:35;;;;;;;0.40;0.30;;;;;;;;;;5092386;28;20419;-59
2021/10/24 09:43:01;;;;;;;;;;;;;;;;;;5091203;28;20513;-60
2021/10/24 09:45:28;;;;;;;0.97;0.30;;;;;;;;;;5087429;28;19954;-60
2021/10/24 09:48:05;;;;;;;3.20;0.37;;;;;;;;;;5087271;28;20028;-60
2021/10/24 09:50:33;;;;;;;2.63;0.30;;;;;;;;;;5087345;28;20510;-60
2021/10/24 09:53:17;;;;;;;1.37;0.33;;;;;;;;;;5088302;28;20050;-59
2021/10/24 09:55:45;;;;;;;0.20;0.10;;;;;;;;;;5092444;28;20490;-59
2021/10/24 09:58:13;;;;;;;0.40;0.30;;;;;;;;;;5092222;28;20025;-59
2021/10/24 10:00:40;;;;;;;0.10;0.10;;;;;;;;;;5092133;28;20028;-59
2021/10/24 10:03:07;;;;;;;2.03;0.40;;;;;;;;;;5092217;28;20032;-60
2021/10/24 10:05:37;;;;;;;1.47;0.40;;;;;;;;;;5089498;28;20036;-60
2021/10/24 10:08:06;;;;;;;0.50;0.27;;;;;;;;;;5087032;28;20028;-60
2021/10/24 10:10:33;;;;;;;0.40;0.10;;;;;;;;;;5087019;28;20074;-59
2021/10/24 10:13:02;;;;;;;1.33;0.23;;;;;;;;;;5086988;28;20475;-60
2021/10/24 10:15:30;;;;;;;2.63;0.60;;;;;;;;;;5089182;28;20101;-60
2021/10/24 10:18:01;;;;;;;5.93;0.30;;;;;;;;;;5091765;28;20099;-59
2021/10/24 10:20:29;;;;;;;3.60;0.20;;;;;;;;;;5092050;28;20024;-60
2021/10/24 10:23:09;;;;;;;0.30;0.10;;;;;;;;;;5092176;28;20471;-59
2021/10/24 10:25:36;;;;;;;0.83;0.30;;;;;;;;;;5095413;28;20036;-59
2021/10/24 10:28:04;;;;;;;0.60;0.30;;;;;;;;;;5091737;28;20036;-60
2021/10/24 10:30:38;;;;;;;1.00;0.20;;;;;;;;;;5090697;28;20032;-60
2021/10/24 10:33:23;;;;;;;1.10;0.40;;;;;;;;;;5090474;28;20501;-60
2021/10/24 10:35:53;;;;;;;0.55;0.28;;;;;;;;;;5090502;28;20020;-60
2021/10/24 10:38:38;;;;;;;0.63;0.13;;;;;;;;;;5093719;28;20028;-60
2021/10/24 10:41:05;;;;;;;0.80;0.20;;;;;;;;;;5095088;28;20405;-60
2021/10/24 10:43:32;;;;;;;4.13;1.90;;;;;;;;;;5095233;28;20382;-60
2021/10/24 10:46:00;;;;;;;0.87;0.30;;;;;;;;;;5095414;28;20047;-60
2021/10/24 10:48:43;;;;;;;0.27;0.10;;;;;;;;;;5095160;28;20070;-60
2021/10/24 10:51:25;;;;;;;1.80;0.23;;;;;;;;;;5090128;28;20049;-60
2021/10/24 10:53:53;;;;;;;3.20;0.20;;;;;;;;;;5090347;28;20028;-60
2021/10/24 10:56:22;;;;;;;0.20;0.10;;;;;;;;;;5089966;28;20023;-60
2021/10/24 10:58:50;;;;;;;0.40;0.17;;;;;;;;;;5089874;28;20069;-60
2021/10/24 11:01:30;;;;;;;0.27;0.20;;;;;;;;;;5094569;28;20824;-60
2021/10/24 11:03:59;;;;;;;1.07;0.17;;;;;;;;;;5094427;28;20078;-60
2021/10/24 11:06:26;;;;;;;0.30;0.10;;;;;;;;;;5094585;28;20256;-60
2021/10/24 11:09:00;;;;;;;1.33;0.20;;;;;;;;;;5094156;28;20032;-60
2021/10/24 11:11:48;;;;;;;0.60;0.17;;;;;;;;;;5093031;28;20997;-60
2021/10/24 11:14:15;;;;;;;0.13;0.10;;;;;;;;;;5089439;28;20268;-60
2021/10/24 11:16:42;;;;;;;2.53;0.20;;;;;;;;;;5090139;28;20043;-60
2021/10/24 11:19:27;;;;;;;0.33;0.20;;;;;;;;;;5088877;28;20803;-60
2021/10/24 11:22:04;;;;;;;0.15;0.00;;;;;;;;;;5091870;28;20352;-59
2021/10/24 11:24:34;;;;;;;0.43;0.10;;;;;;;;;;5094272;28;20024;-59
2021/10/24 11:27:01;;;;;;;0.63;0.20;;;;;;;;;;5094069;28;20340;-60
2021/10/24 11:29:28;;;;;;;0.73;0.20;;;;;;;;;;5094155;28;20337;-60
2021/10/24 11:32:14;;;;;;;0.27;0.20;;;;;;;;;;5094302;28;20314;-60
2021/10/24 11:34:41;;;;;;;0.57;0.20;;;;;;;;;;5090032;28;20024;-60
2021/10/24 11:37:11;;;;;;;0.53;0.23;;;;;;;;;;5088934;28;20028;-60
2021/10/24 11:39:38;;;;;;;1.17;0.30;;;;;;;;;;5089058;28;20257;-60
2021/10/24 11:42:13;;;;;;;1.70;0.53;;;;;;;;;;5088982;28;20256;-60
2021/10/24 11:44:40;;;;;;;0.10;0.10;;;;;;;;;;5092639;28;20059;-60
2021/10/24 11:47:14;;;;;;;0.80;0.47;;;;;;;;;;5094311;28;20253;-60
2021/10/24 11:49:48;;;;;;;0.67;0.30;;;;;;;;;;5093732;28;20296;-60
2021/10/24 11:52:25;;;;;;;3.70;0.40;;;;;;;;;;5093921;28;20052;-60
2021/10/24 11:55:14;;;;;;;1.30;0.27;;;;;;;;;;5093679;28;20027;-60
2021/10/24 12:00:21;;;;;;;0.70;0.37;;;;;;;;;;5088614;28;20259;-60
2021/10/24 12:03:00;;;;;;;0.73;0.20;;;;;;;;;;5088503;28;20268;-60
2021/10/24 12:05:32;;;;;;;0.63;0.30;;;;;;;;;;5089207;28;20245;-60
2021/10/24 12:07:59;;;;;;;2.47;0.13;;;;;;;;;;5093739;28;20280;-60
2021/10/24 12:10:36;;;;;;;2.20;0.40;;;;;;;;;;5093666;28;20257;-60
2021/10/24 12:13:03;;;;;;;1.60;0.20;;;;;;;;;;5093611;28;20736;-60
2021/10/24 12:15:40;;;;;;;0.47;0.20;;;;;;;;;;5093562;28;20351;-60
2021/10/24 12:18:13;;;;;;;0.57;0.20;;;;;;;;;;5091136;28;20260;-60
2021/10/24 12:20:40;;;;;;;1.83;0.47;;;;;;;;;;5088333;28;20265;-60
2021/10/24 12:23:16;;;;;;;0.47;0.30;;;;;;;;;;5088211;28;20314;-60
2021/10/24 12:25:47;;;;;;;0.93;0.40;;;;;;;;;;5088014;28;20868;-59
2021/10/24 12:28:29;;;;;;;0.40;0.33;;;;;;;;;;5089657;28;20295;-60
2021/10/24 12:30:58;;;;;;;2.30;0.87;;;;;;;;;;5093311;28;20619;-60
2021/10/24 12:33:28;;;;;;;2.03;0.73;;;;;;;;;;5093264;28;20249;-61
2021/10/24 12:35:56;;;;;;;0.73;0.40;;;;;;;;;;5093090;28;20267;-60
2021/10/24 12:38:23;;;;;;;1.17;0.50;;;;;;;;;;5092684;28;20272;-60
2021/10/24 12:40:59;;;;;;;1.27;0.63;;;;;;;;;;5089881;28;20317;-60
2021/10/24 12:43:26;;;;;;;4.53;1.67;;;;;;;;;;5087802;28;20347;-60
2021/10/24 12:45:54;;;;;;;6.73;2.30;;;;;;;;;;5087792;28;20302;-60
2021/10/24 12:48:22;;;;;;;8.80;2.00;;;;;;;;;;5087984;28;20292;-60
2021/10/24 12:50:49;;;;;;;6.93;1.70;;;;;;;;;;5090755;28;20257;-60
2021/10/24 12:53:18;;;;;;;1.37;0.83;;;;;;;;;;5092900;28;20249;-60
2021/10/24 12:56:01;;;;;;;4.67;1.30;;;;;;;;;;5092867;28;20352;-60
2021/10/24 12:58:28;;;;;;;4.90;1.37;;;;;;;;;;5092817;28;20282;-60
2021/10/24 13:00:55;;;;;;;4.57;1.40;;;;;;;;;;5092684;28;20249;-59
2021/10/24 13:03:22;;;;;;;4.23;1.57;;;;;;;;;;5088195;28;20253;-59
2021/10/24 13:05:49;;;;;;;2.37;1.27;;;;;;;;;;5087502;28;20261;-59
2021/10/24 13:08:17;;;;;;;3.73;1.27;;;;;;;;;;5087445;28;20283;-60
2021/10/24 13:10:44;;;;;;;5.03;1.40;;;;;;;;;;5087413;28;20275;-59
2021/10/24 13:13:11;;;;;;;2.80;1.20;;;;;;;;;;5090396;28;20264;-60
2021/10/24 13:15:38;;;;;;;2.90;1.40;;;;;;;;;;5092646;28;20275;-60
2021/10/24 13:18:05;;;;;;;5.40;1.70;;;;;;;;;;5092065;28;20340;-60
2021/10/24 13:20:32;;;;;;;2.97;1.67;;;;;;;;;;5092565;28;20252;-59
2021/10/24 13:23:03;;;;;;;5.07;2.03;;;;;;;;;;5092521;28;20016;-60
2021/10/24 13:25:30;;;;;;;6.03;2.40;;;;;;;;;;5088377;28;20118;-60
2021/10/24 13:27:58;;;;;;;4.83;1.77;;;;;;;;;;5087156;28;20034;-60
2021/10/24 13:30:25;;;;;;;2.73;1.20;;;;;;;;;;5086910;28;20051;-60
2021/10/24 13:32:52;;;;;;;3.40;1.40;;;;;;;;;;5087105;28;20096;-60
2021/10/24 13:35:20;;;;;;;3.90;0.93;;;;;;;;;;5090500;28;20028;-60
2021/10/24 13:37:47;;;;;;;2.37;0.90;;;;;;;;;;5092147;28;20051;-60
2021/10/24 13:40:14;;;;;;;2.30;0.80;;;;;;;;;;5092467;28;20021;-60
2021/10/24 13:42:41;;;;;;;1.83;0.87;;;;;;;;;;5091996;28;20117;-60
2021/10/24 13:45:12;;;;;;;1.63;0.67;;;;;;;;;;5091949;28;20032;-60
2021/10/24 13:47:39;;;;;;;1.00;0.60;;;;;;;;;;5088170;28;20360;-60
2021/10/24 13:50:07;;;;;;;1.30;1.00;;;;;;;;;;5087046;28;20032;-60
2021/10/24 13:52:34;;;;;;;2.23;1.10;;;;;;;;;;5086846;28;20069;-60
2021/10/24 13:55:01;;;;;;;4.77;1.30;;;;;;;;;;5086961;28;20028;-60
2021/10/24 13:57:28;;;;;;;2.90;1.67;;;;;;;;;;5090405;28;20024;-60
2021/10/24 13:59:55;;;;;;;6.43;2.73;;;;;;;;;;5094782;28;20035;-60
2021/10/24 14:02:21;;;;;;;5.90;2.80;;;;;;;;;;5096329;28;20091;-60
2021/10/24 14:04:48;;;;;;;8.47;2.70;;;;;;;;;;5096214;28;20028;-61
2021/10/24 14:07:15;;;;;;;3.90;2.17;;;;;;;;;;5095915;28;20028;-61
2021/10/24 14:09:43;;;;;;;5.90;2.20;;;;;;;;;;5091770;28;20032;-61
2021/10/24 14:12:10;;;;;;;5.30;1.80;;;;;;;;;;5090559;28;20099;-61
2021/10/24 14:14:38;;;;;;;5.07;1.90;;;;;;;;;;5089997;28;20036;-61
2021/10/24 14:17:05;;;;;;;3.23;1.67;;;;;;;;;;5090567;28;20038;-61
2021/10/24 14:19:32;;;;;;;5.17;2.20;;;;;;;;;;5094005;28;20026;-61
2021/10/24 14:21:59;;;;;;;7.00;3.40;;;;;;;;;;5095903;28;20035;-61
2021/10/24 14:24:26;;;;;;;3.37;1.97;;;;;;;;;;5095474;28;20024;-61
2021/10/24 14:26:52;;;;;;;5.73;2.43;;;;;;;;;;5095726;28;20062;-60
2021/10/24 14:29:19;;;;;;;5.27;2.80;;;;;;;;;;5095353;28;20047;-60
2021/10/24 14:31:46;;;;;;;9.43;5.10;;;;;;;;;;5091817;28;20019;-61
2021/10/24 14:34:13;;;;;;;11.70;5.07;;;;;;;;;;5090433;28;20028;-61
2021/10/24 14:36:39;;;;;;;8.77;4.50;;;;;;;;;;5089965;28;20095;-61
2021/10/24 14:39:07;;;;;;;7.13;4.10;;;;;;;;;;5089884;28;20028;-61
2021/10/24 14:41:34;;;;;;;6.27;3.57;;;;;;;;;;5093447;28;20028;-61
2021/10/24 14:44:01;;;;;;;7.50;3.50;;;;;;;;;;5095104;28;20085;-61
2021/10/24 14:46:28;;;;;;;4.23;2.40;;;;;;;;;;5095223;28;20027;-61
2021/10/24 14:48:55;;;;;;;4.83;2.80;;;;;;;;;;5095395;28;20040;-61
2021/10/24 14:51:22;;;;;;;3.77;2.23;;;;;;;;;;5095291;28;20032;-61
2021/10/24 14:53:49;;;;;;;5.83;2.33;;;;;;;;;;5091243;28;20516;-61